Terminal Aerodrome Forecast
Issued by NWS

Current Version | Previous Version | Text Only | Print | Product List | Glossary Off
Versions: 1 2 3 4 5 6 7 8 9 10 11 12 13 14 15 16 17 18 19 20 21 22 23 24 25 26 27

000
FTUS41 KILN 281129
TAFLUK
TAF
KLUK 281129Z 2812/2912 00000KT 1SM BR BKN002
     FM281300 VRB02KT 4SM BR FEW012 SCT080
     FM281500 VRB03KT P6SM SCT250
     FM281700 08004KT P6SM VCSH FEW025 BKN040
     FM290000 VRB02KT P6SM FEW040 SCT250
     FM290600 00000KT 2SM BR SCT250
     FM290800 00000KT 1/4SM FG VV002=

USA.gov is the U.S. government's official web portal to all federal, state and local government web resources and services.